Milouin — FT9009 — position and weather

sailwx.info

Track history (hours):
 
Tides and Currents Weather Stations Pressure Air Temp Water Temp Dewpoint Dewpoint Depression Visibility Wind Speed Wind Dir Waves Ship Positions

Milouin

Last reported at 2016-May-30 02:34 UTC. Time now 2016-May-30 03:08 UTC.
Position N 47°17' W 002°01'.

Length 36 m; draft 2.5 m.

Type: Ship. MMSI: 227003190.

Date/timePositionNaut miles runAvg speedWind from/ knotsBaromVisibWave heightAir tempDewpointWater temp
2016-May-30 02:34N 47°17' W 002°01'0 0.0
2016-May-30 01:33N 47°17' W 002°01'0 0.0
2016-May-30 00:33N 47°17' W 002°01'0 0.0
2016-May-29 23:33N 47°17' W 002°01'0 0.0
2016-May-29 22:33N 47°17' W 002°01'0 0.0
2016-May-29 21:33N 47°17' W 002°01'0 0.0
2016-May-29 20:33N 47°17' W 002°01'0 0.0
2016-May-29 19:33N 47°17' W 002°01'0 0.0
2016-May-29 18:34N 47°17' W 002°01'0 0.0
2016-May-29 17:33N 47°17' W 002°01'0 0.0
2016-May-29 16:33N 47°17' W 002°01'0 0.0
2016-May-29 15:33N 47°17' W 002°01'8 7.6
2016-May-29 14:33N 47°15' W 001°51'10 9.9
2016-May-29 13:34N 47°12' W 001°37'1 0.9
2016-May-29 12:33N 47°12' W 001°36'6 5.6
2016-May-29 11:33N 47°12' W 001°44'5 5.4
2016-May-29 10:33N 47°15' W 001°51'6 5.7
2016-May-29 09:33N 47°17' W 001°59'7 7.0
2016-May-29 08:33N 47°18' W 002°09'3 2.6
2016-May-29 07:32N 47°16' W 002°12'0 0.2
2016-May-29 06:34N 47°16' W 002°12'6 6.1
2016-May-29 05:33N 47°18' W 002°04'2 0.9
2016-May-29 03:30N 47°17' W 002°01'0 0.0
2016-May-29 02:32N 47°17' W 002°01'0 0.0
2016-May-29 00:31N 47°17' W 002°01'0 0.0
2016-May-28 23:22N 47°17' W 002°01'0 0.0
2016-May-28 22:25N 47°17' W 002°01'0 0.0
2016-May-28 21:13N 47°17' W 002°01'0 0.0
2016-May-28 20:31N 47°17' W 002°01'0 0.0
2016-May-28 19:33N 47°17' W 002°01'0 0.0
2016-May-28 18:33N 47°17' W 002°01'0 0.0
2016-May-28 17:33N 47°17' W 002°01'0 0.0
2016-May-28 16:33N 47°17' W 002°01'0 0.0
2016-May-28 15:25N 47°17' W 002°01'3 3.7
2016-May-28 14:33N 47°18' W 002°06'1 0.7
2016-May-28 13:34N 47°18' W 002°07'0 0.1
2016-May-28 12:33N 47°18' W 002°07'1 0.6
2016-May-28 11:33N 47°18' W 002°08'4 4.2
2016-May-28 10:33N 47°18' W 002°02'9 9.1
2016-May-28 09:33N 47°14' W 001°50'10 9.7
2016-May-28 08:33N 47°12' W 001°36'1 0.5
2016-May-28 07:33N 47°12' W 001°36'0 0.1
2016-May-28 06:33N 47°12' W 001°36'6 0.4
2016-May-27 13:04N 47°12' W 001°46'0 0.0
2016-May-27 12:33N 47°12' W 001°46'0 0.0
2016-May-27 11:33N 47°12' W 001°46'0 0.0
2016-May-27 10:33N 47°12' W 001°46'0 0.0
2016-May-27 09:33N 47°12' W 001°46'0 0.0
2016-May-27 08:34N 47°12' W 001°46'0 0.0
2016-May-27 07:33N 47°12' W 001°46'0 0.0
2016-May-27 06:34N 47°12' W 001°46'0 0.0
2016-May-27 05:33N 47°12' W 001°46'0 0.0
2016-May-27 04:33N 47°12' W 001°46'0 0.0
2016-May-27 03:33N 47°12' W 001°46'0 0.0
2016-May-27 02:34N 47°12' W 001°46'0 0.0
2016-May-27 01:33N 47°12' W 001°46'0 0.0
2016-May-27 00:33N 47°12' W 001°46'0 0.0
2016-May-26 23:34N 47°12' W 001°46'0 0.0
2016-May-26 22:33N 47°12' W 001°46'0 0.0
2016-May-26 21:33N 47°12' W 001°46'0 0.0
2016-May-26 20:33N 47°12' W 001°46'0 0.0
2016-May-26 19:33N 47°12' W 001°46'0 0.0
2016-May-26 18:33N 47°12' W 001°46'0 0.0
2016-May-26 17:34N 47°12' W 001°46'0 0.0
2016-May-26 16:33N 47°12' W 001°46'0 0.0
2016-May-26 15:33N 47°12' W 001°46'0 0.0
2016-May-26 14:33N 47°12' W 001°46'0 0.0
2016-May-26 13:33N 47°12' W 001°46'0 0.0
2016-May-26 12:34N 47°12' W 001°46'0 0.0
2016-May-26 11:33N 47°12' W 001°46'0 0.0
2016-May-26 10:33N 47°12' W 001°46'0 0.0
2016-May-26 09:33N 47°12' W 001°46'0 0.0
2016-May-26 08:34N 47°12' W 001°46'0 0.0
2016-May-26 07:33N 47°12' W 001°46'0 0.0
2016-May-26 06:34N 47°12' W 001°46'0 0.0
2016-May-26 05:33N 47°12' W 001°46'0 0.0
2016-May-26 04:33N 47°12' W 001°46'0 0.0
2016-May-26 03:33N 47°12' W 001°46'0 0.0
2016-May-26 02:34N 47°12' W 001°46'0 0.0
2016-May-26 01:33N 47°12' W 001°46'0 0.0
2016-May-26 00:34N 47°12' W 001°46'0 0.0
2016-May-25 23:34N 47°12' W 001°46'0 0.0
2016-May-25 22:34N 47°12' W 001°46'0 0.0
2016-May-25 21:33N 47°12' W 001°46'0 0.0
2016-May-25 20:34N 47°12' W 001°46'0 0.0
2016-May-25 19:33N 47°12' W 001°46'0 0.0
2016-May-25 18:33N 47°12' W 001°46'0 0.0
2016-May-25 17:33N 47°12' W 001°46'0 0.0
2016-May-25 16:33N 47°12' W 001°46'0 0.0
2016-May-25 15:32N 47°12' W 001°46'0 0.0
2016-May-25 14:33N 47°12' W 001°46'0 0.0
2016-May-25 13:34N 47°12' W 001°46'0 0.0
2016-May-25 12:33N 47°12' W 001°46'0 0.0
2016-May-25 11:33N 47°12' W 001°46'0 0.0
2016-May-25 10:33N 47°12' W 001°46'0 0.0
2016-May-25 09:33N 47°12' W 001°46'0 0.0
2016-May-25 08:33N 47°12' W 001°46'0 0.1
2016-May-25 07:33N 47°12' W 001°46'0 0.0
2016-May-25 06:34N 47°12' W 001°46'0 0.1
2016-May-25 05:33N 47°12' W 001°46'0 0.0
2016-May-25 04:34N 47°12' W 001°46'0 0.0
2016-May-25 03:33N 47°12' W 001°46'0 0.0
2016-May-25 02:33N 47°12' W 001°46'0 0.0
2016-May-25 01:34N 47°12' W 001°46'0 0.0
2016-May-25 00:33N 47°12' W 001°46'0 0.0
2016-May-24 23:33N 47°12' W 001°46'0 0.0
2016-May-24 22:33N 47°12' W 001°46'0 0.0
2016-May-24 21:34N 47°12' W 001°46'0 0.0
2016-May-24 20:34N 47°12' W 001°46'0 0.0
2016-May-24 19:33N 47°12' W 001°46'0 0.0
2016-May-24 18:33N 47°12' W 001°46'0 0.0
2016-May-24 17:33N 47°12' W 001°46'0 0.0
2016-May-24 16:33N 47°12' W 001°46'0 0.0
2016-May-24 15:31N 47°12' W 001°46'0 0.0
2016-May-24 14:33N 47°12' W 001°46'0 0.0
2016-May-24 13:30N 47°12' W 001°46'0 0.0
2016-May-24 12:34N 47°12' W 001°46'2 1.5
2016-May-24 11:34N 47°13' W 001°48'3 2.6
2016-May-24 10:34N 47°15' W 001°51'1 0.8
2016-May-24 09:33N 47°14' W 001°50'0 0.2
2016-May-24 08:33N 47°14' W 001°50'1 0.6
2016-May-24 07:34N 47°15' W 001°51'0 0.2
2016-May-24 06:34N 47°15' W 001°51'4 4.3
2016-May-24 05:33N 47°12' W 001°46'0 0.0
2016-May-24 04:33N 47°12' W 001°46'0 0.0
2016-May-24 03:33N 47°12' W 001°46'0 0.0
2016-May-24 02:33N 47°12' W 001°46'0 0.0
2016-May-24 01:34N 47°12' W 001°46'0 0.0
2016-May-24 00:34N 47°12' W 001°46'0 0.0
2016-May-23 23:33N 47°12' W 001°46'0 0.0
2016-May-23 22:34N 47°12' W 001°46'0 0.0
2016-May-23 21:34N 47°12' W 001°46'0 0.0
2016-May-23 20:34N 47°12' W 001°46'0 0.0
2016-May-23 19:34N 47°12' W 001°46'0 0.0
2016-May-23 18:33N 47°12' W 001°46'0 0.0
2016-May-23 17:33N 47°12' W 001°46'0 0.0
2016-May-23 16:33N 47°12' W 001°46'0 0.0
2016-May-23 15:34N 47°12' W 001°46'0 0.0
2016-May-23 14:33N 47°12' W 001°46'2 1.7
2016-May-23 13:33N 47°13' W 001°48'7 7.5
2016-May-23 12:33N 47°17' W 001°57'3 3.0
2016-May-23 11:33N 47°18' W 002°01'3 2.9
2016-May-23 10:33N 47°18' W 002°06'0 0.0
2016-May-23 09:33N 47°18' W 002°06'0 0.1
2016-May-23 08:33N 47°18' W 002°05'0 0.1
2016-May-23 07:33N 47°18' W 002°06'0 0.1
2016-May-23 06:33N 47°18' W 002°06'0 0.2
2016-May-23 05:33N 47°18' W 002°05'3 2.5
2016-May-23 04:22N 47°17' W 002°01'0 0.0
2016-May-23 03:34N 47°17' W 002°01'0 0.0
2016-May-23 02:33N 47°17' W 002°01'0 0.0
2016-May-23 01:33N 47°17' W 002°01'0 0.0
2016-May-23 00:32N 47°17' W 002°01'0 0.0
2016-May-22 23:33N 47°17' W 002°01'0 0.0
2016-May-22 22:33N 47°17' W 002°01'0 0.0
2016-May-22 21:33N 47°17' W 002°01'0 0.0
2016-May-22 20:27N 47°17' W 002°01'0 0.0
2016-May-22 19:30N 47°17' W 002°01'0 0.0
2016-May-22 18:32N 47°17' W 002°01'0 0.0
2016-May-22 15:32N 47°17' W 002°01'0 0.0
2016-May-22 14:33N 47°17' W 002°01'0 0.0
2016-May-22 13:33N 47°17' W 002°01'0 0.0
2016-May-22 12:33N 47°17' W 002°01'0 0.0
2016-May-22 11:32N 47°17' W 002°01'3 2.9
2016-May-22 10:33N 47°18' W 002°05'2 1.7
2016-May-22 09:34N 47°18' W 002°08'0 0.3
2016-May-22 08:33N 47°18' W 002°07'0 0.2
2016-May-22 07:33N 47°18' W 002°08'0 0.1
2016-May-22 06:33N 47°18' W 002°07'1 1.0
2016-May-22 05:33N 47°18' W 002°06'3 2.9
2016-May-22 04:24N 47°17' W 002°01'0 0.0
2016-May-22 03:33N 47°17' W 002°01'0 0.0
2016-May-22 02:33N 47°17' W 002°01'0 0.0
2016-May-22 01:33N 47°17' W 002°01'0 0.0
2016-May-22 00:33N 47°17' W 002°01'0 0.0
2016-May-21 23:33N 47°17' W 002°01'0 0.0
2016-May-21 22:32N 47°17' W 002°01'0 0.0
2016-May-21 21:32N 47°17' W 002°01'0 0.0
2016-May-21 20:33N 47°17' W 002°01'0 0.0
2016-May-21 19:32N 47°17' W 002°01'0 0.0
2016-May-21 18:08N 47°17' W 002°01'0 0.0
2016-May-21 17:12N 47°17' W 002°01'0 0.0
2016-May-21 16:32N 47°17' W 002°01'0 0.0
2016-May-21 15:32N 47°17' W 002°01'0 0.0
2016-May-21 14:33N 47°17' W 002°01'0 0.0
2016-May-21 13:33N 47°17' W 002°01'0 0.0
2016-May-21 12:34N 47°17' W 002°01'0 0.0
2016-May-21 11:33N 47°17' W 002°01'0 0.3
2016-May-21 10:34N 47°18' W 002°01'4 4.1
2016-May-21 09:33N 47°18' W 002°07'0 0.1
2016-May-21 08:33N 47°18' W 002°08'0 0.2
2016-May-21 07:33N 47°18' W 002°07'0 0.1
2016-May-21 06:33N 47°18' W 002°07'1 0.6
2016-May-21 05:33N 47°18' W 002°06'4 3.6
2016-May-21 04:34N 47°17' W 002°01'0 0.0
2016-May-21 03:32N 47°17' W 002°01'0 0.0
2016-May-21 02:33N 47°17' W 002°01'0 0.0
2016-May-21 01:34N 47°17' W 002°01'0 0.0
2016-May-21 00:33N 47°17' W 002°01'0 0.0
2016-May-20 23:34N 47°17' W 002°01'0 0.0
2016-May-20 22:28N 47°17' W 002°01'0 0.0
2016-May-20 21:33N 47°17' W 002°01'0 0.0
2016-May-20 20:32N 47°17' W 002°01'0 0.0
2016-May-20 19:30N 47°17' W 002°01'0 0.0
2016-May-20 18:23N 47°17' W 002°01'0 0.0
2016-May-20 16:30N 47°17' W 002°01'0 0.4
2016-May-20 15:34N 47°18' W 002°01'0 0.4
2016-May-20 14:32N 47°17' W 002°01'0 0.0
2016-May-20 13:33N 47°17' W 002°01'0 0.0
2016-May-20 12:33N 47°17' W 002°01'0 0.0
2016-May-20 11:33N 47°17' W 002°01'0 0.0
2016-May-20 10:33N 47°17' W 002°01'3 3.3
2016-May-20 09:33N 47°18' W 002°06'1 0.7
2016-May-20 08:34N 47°18' W 002°07'0 0.0
2016-May-20 07:33N 47°18' W 002°07'0 0.1
2016-May-20 06:34N 47°18' W 002°07'0 0.2
2016-May-20 05:33N 47°18' W 002°06'  
Track history (hours):
 
Tides and Currents Weather Stations Pressure Air Temp Water Temp Dewpoint Dewpoint Depression Visibility Wind Speed Wind Dir Waves Ship Positions

Milouin

Last reported at 2016-May-30 02:34 UTC. Time now 2016-May-30 03:08 UTC.
Position N 47°17' W 002°01'.

Length 36 m; draft 2.5 m.

Type: Ship. MMSI: 227003190.

Date/timePositionNaut miles runAvg speedWind from/ knotsBaromVisibWave heightAir tempDewpointWater temp
2016-May-30 02:34N 47°17' W 002°01'0 0.0
2016-May-30 01:33N 47°17' W 002°01'0 0.0
2016-May-30 00:33N 47°17' W 002°01'0 0.0
2016-May-29 23:33N 47°17' W 002°01'0 0.0
2016-May-29 22:33N 47°17' W 002°01'0 0.0
2016-May-29 21:33N 47°17' W 002°01'0 0.0
2016-May-29 20:33N 47°17' W 002°01'0 0.0
2016-May-29 19:33N 47°17' W 002°01'0 0.0
2016-May-29 18:34N 47°17' W 002°01'0 0.0
2016-May-29 17:33N 47°17' W 002°01'0 0.0
2016-May-29 16:33N 47°17' W 002°01'0 0.0
2016-May-29 15:33N 47°17' W 002°01'8 7.6
2016-May-29 14:33N 47°15' W 001°51'10 9.9
2016-May-29 13:34N 47°12' W 001°37'1 0.9
2016-May-29 12:33N 47°12' W 001°36'6 5.6
2016-May-29 11:33N 47°12' W 001°44'5 5.4
2016-May-29 10:33N 47°15' W 001°51'6 5.7
2016-May-29 09:33N 47°17' W 001°59'7 7.0
2016-May-29 08:33N 47°18' W 002°09'3 2.6
2016-May-29 07:32N 47°16' W 002°12'0 0.2
2016-May-29 06:34N 47°16' W 002°12'6 6.1
2016-May-29 05:33N 47°18' W 002°04'2 0.9
2016-May-29 03:30N 47°17' W 002°01'0 0.0
2016-May-29 02:32N 47°17' W 002°01'0 0.0
2016-May-29 00:31N 47°17' W 002°01'0 0.0
2016-May-28 23:22N 47°17' W 002°01'0 0.0
2016-May-28 22:25N 47°17' W 002°01'0 0.0
2016-May-28 21:13N 47°17' W 002°01'0 0.0
2016-May-28 20:31N 47°17' W 002°01'0 0.0
2016-May-28 19:33N 47°17' W 002°01'0 0.0
2016-May-28 18:33N 47°17' W 002°01'0 0.0
2016-May-28 17:33N 47°17' W 002°01'0 0.0
2016-May-28 16:33N 47°17' W 002°01'0 0.0
2016-May-28 15:25N 47°17' W 002°01'3 3.7
2016-May-28 14:33N 47°18' W 002°06'1 0.7
2016-May-28 13:34N 47°18' W 002°07'0 0.1
2016-May-28 12:33N 47°18' W 002°07'1 0.6
2016-May-28 11:33N 47°18' W 002°08'4 4.2
2016-May-28 10:33N 47°18' W 002°02'9 9.1
2016-May-28 09:33N 47°14' W 001°50'10 9.7
2016-May-28 08:33N 47°12' W 001°36'1 0.5
2016-May-28 07:33N 47°12' W 001°36'0 0.1
2016-May-28 06:33N 47°12' W 001°36'6 0.4
2016-May-27 13:04N 47°12' W 001°46'0 0.0
2016-May-27 12:33N 47°12' W 001°46'0 0.0
2016-May-27 11:33N 47°12' W 001°46'0 0.0
2016-May-27 10:33N 47°12' W 001°46'0 0.0
2016-May-27 09:33N 47°12' W 001°46'0 0.0
2016-May-27 08:34N 47°12' W 001°46'0 0.0
2016-May-27 07:33N 47°12' W 001°46'0 0.0
2016-May-27 06:34N 47°12' W 001°46'0 0.0
2016-May-27 05:33N 47°12' W 001°46'0 0.0
2016-May-27 04:33N 47°12' W 001°46'0 0.0
2016-May-27 03:33N 47°12' W 001°46'0 0.0
2016-May-27 02:34N 47°12' W 001°46'0 0.0
2016-May-27 01:33N 47°12' W 001°46'0 0.0
2016-May-27 00:33N 47°12' W 001°46'0 0.0
2016-May-26 23:34N 47°12' W 001°46'0 0.0
2016-May-26 22:33N 47°12' W 001°46'0 0.0
2016-May-26 21:33N 47°12' W 001°46'0 0.0
2016-May-26 20:33N 47°12' W 001°46'0 0.0
2016-May-26 19:33N 47°12' W 001°46'0 0.0
2016-May-26 18:33N 47°12' W 001°46'0 0.0
2016-May-26 17:34N 47°12' W 001°46'0 0.0
2016-May-26 16:33N 47°12' W 001°46'0 0.0
2016-May-26 15:33N 47°12' W 001°46'0 0.0
2016-May-26 14:33N 47°12' W 001°46'0 0.0
2016-May-26 13:33N 47°12' W 001°46'0 0.0
2016-May-26 12:34N 47°12' W 001°46'0 0.0
2016-May-26 11:33N 47°12' W 001°46'0 0.0
2016-May-26 10:33N 47°12' W 001°46'0 0.0
2016-May-26 09:33N 47°12' W 001°46'0 0.0
2016-May-26 08:34N 47°12' W 001°46'0 0.0
2016-May-26 07:33N 47°12' W 001°46'0 0.0
2016-May-26 06:34N 47°12' W 001°46'0 0.0
2016-May-26 05:33N 47°12' W 001°46'0 0.0
2016-May-26 04:33N 47°12' W 001°46'0 0.0
2016-May-26 03:33N 47°12' W 001°46'0 0.0
2016-May-26 02:34N 47°12' W 001°46'0 0.0
2016-May-26 01:33N 47°12' W 001°46'0 0.0
2016-May-26 00:34N 47°12' W 001°46'0 0.0
2016-May-25 23:34N 47°12' W 001°46'0 0.0
2016-May-25 22:34N 47°12' W 001°46'0 0.0
2016-May-25 21:33N 47°12' W 001°46'0 0.0
2016-May-25 20:34N 47°12' W 001°46'0 0.0
2016-May-25 19:33N 47°12' W 001°46'0 0.0
2016-May-25 18:33N 47°12' W 001°46'0 0.0
2016-May-25 17:33N 47°12' W 001°46'0 0.0
2016-May-25 16:33N 47°12' W 001°46'0 0.0
2016-May-25 15:32N 47°12' W 001°46'0 0.0
2016-May-25 14:33N 47°12' W 001°46'0 0.0
2016-May-25 13:34N 47°12' W 001°46'0 0.0
2016-May-25 12:33N 47°12' W 001°46'0 0.0
2016-May-25 11:33N 47°12' W 001°46'0 0.0
2016-May-25 10:33N 47°12' W 001°46'0 0.0
2016-May-25 09:33N 47°12' W 001°46'0 0.0
2016-May-25 08:33N 47°12' W 001°46'0 0.1
2016-May-25 07:33N 47°12' W 001°46'0 0.0
2016-May-25 06:34N 47°12' W 001°46'0 0.1
2016-May-25 05:33N 47°12' W 001°46'0 0.0
2016-May-25 04:34N 47°12' W 001°46'0 0.0
2016-May-25 03:33N 47°12' W 001°46'0 0.0
2016-May-25 02:33N 47°12' W 001°46'0 0.0
2016-May-25 01:34N 47°12' W 001°46'0 0.0
2016-May-25 00:33N 47°12' W 001°46'0 0.0
2016-May-24 23:33N 47°12' W 001°46'0 0.0
2016-May-24 22:33N 47°12' W 001°46'0 0.0
2016-May-24 21:34N 47°12' W 001°46'0 0.0
2016-May-24 20:34N 47°12' W 001°46'0 0.0
2016-May-24 19:33N 47°12' W 001°46'0 0.0
2016-May-24 18:33N 47°12' W 001°46'0 0.0
2016-May-24 17:33N 47°12' W 001°46'0 0.0
2016-May-24 16:33N 47°12' W 001°46'0 0.0
2016-May-24 15:31N 47°12' W 001°46'0 0.0
2016-May-24 14:33N 47°12' W 001°46'0 0.0
2016-May-24 13:30N 47°12' W 001°46'0 0.0
2016-May-24 12:34N 47°12' W 001°46'2 1.5
2016-May-24 11:34N 47°13' W 001°48'3 2.6
2016-May-24 10:34N 47°15' W 001°51'1 0.8
2016-May-24 09:33N 47°14' W 001°50'0 0.2
2016-May-24 08:33N 47°14' W 001°50'1 0.6
2016-May-24 07:34N 47°15' W 001°51'0 0.2
2016-May-24 06:34N 47°15' W 001°51'4 4.3
2016-May-24 05:33N 47°12' W 001°46'0 0.0
2016-May-24 04:33N 47°12' W 001°46'0 0.0
2016-May-24 03:33N 47°12' W 001°46'0 0.0
2016-May-24 02:33N 47°12' W 001°46'0 0.0
2016-May-24 01:34N 47°12' W 001°46'0 0.0
2016-May-24 00:34N 47°12' W 001°46'0 0.0
2016-May-23 23:33N 47°12' W 001°46'0 0.0
2016-May-23 22:34N 47°12' W 001°46'0 0.0
2016-May-23 21:34N 47°12' W 001°46'0 0.0
2016-May-23 20:34N 47°12' W 001°46'0 0.0
2016-May-23 19:34N 47°12' W 001°46'0 0.0
2016-May-23 18:33N 47°12' W 001°46'0 0.0
2016-May-23 17:33N 47°12' W 001°46'0 0.0
2016-May-23 16:33N 47°12' W 001°46'0 0.0
2016-May-23 15:34N 47°12' W 001°46'0 0.0
2016-May-23 14:33N 47°12' W 001°46'2 1.7
2016-May-23 13:33N 47°13' W 001°48'7 7.5
2016-May-23 12:33N 47°17' W 001°57'3 3.0
2016-May-23 11:33N 47°18' W 002°01'3 2.9
2016-May-23 10:33N 47°18' W 002°06'0 0.0
2016-May-23 09:33N 47°18' W 002°06'0 0.1
2016-May-23 08:33N 47°18' W 002°05'0 0.1
2016-May-23 07:33N 47°18' W 002°06'0 0.1
2016-May-23 06:33N 47°18' W 002°06'0 0.2
2016-May-23 05:33N 47°18' W 002°05'3 2.5
2016-May-23 04:22N 47°17' W 002°01'0 0.0
2016-May-23 03:34N 47°17' W 002°01'0 0.0
2016-May-23 02:33N 47°17' W 002°01'0 0.0
2016-May-23 01:33N 47°17' W 002°01'0 0.0
2016-May-23 00:32N 47°17' W 002°01'0 0.0
2016-May-22 23:33N 47°17' W 002°01'0 0.0
2016-May-22 22:33N 47°17' W 002°01'0 0.0
2016-May-22 21:33N 47°17' W 002°01'0 0.0
2016-May-22 20:27N 47°17' W 002°01'0 0.0
2016-May-22 19:30N 47°17' W 002°01'0 0.0
2016-May-22 18:32N 47°17' W 002°01'0 0.0
2016-May-22 15:32N 47°17' W 002°01'0 0.0
2016-May-22 14:33N 47°17' W 002°01'0 0.0
2016-May-22 13:33N 47°17' W 002°01'0 0.0
2016-May-22 12:33N 47°17' W 002°01'0 0.0
2016-May-22 11:32N 47°17' W 002°01'3 2.9
2016-May-22 10:33N 47°18' W 002°05'2 1.7
2016-May-22 09:34N 47°18' W 002°08'0 0.3
2016-May-22 08:33N 47°18' W 002°07'0 0.2
2016-May-22 07:33N 47°18' W 002°08'0 0.1
2016-May-22 06:33N 47°18' W 002°07'1 1.0
2016-May-22 05:33N 47°18' W 002°06'3 2.9
2016-May-22 04:24N 47°17' W 002°01'0 0.0
2016-May-22 03:33N 47°17' W 002°01'0 0.0
2016-May-22 02:33N 47°17' W 002°01'0 0.0
2016-May-22 01:33N 47°17' W 002°01'0 0.0
2016-May-22 00:33N 47°17' W 002°01'0 0.0
2016-May-21 23:33N 47°17' W 002°01'0 0.0
2016-May-21 22:32N 47°17' W 002°01'0 0.0
2016-May-21 21:32N 47°17' W 002°01'0 0.0
2016-May-21 20:33N 47°17' W 002°01'0 0.0
2016-May-21 19:32N 47°17' W 002°01'0 0.0
2016-May-21 18:08N 47°17' W 002°01'0 0.0
2016-May-21 17:12N 47°17' W 002°01'0 0.0
2016-May-21 16:32N 47°17' W 002°01'0 0.0
2016-May-21 15:32N 47°17' W 002°01'0 0.0
2016-May-21 14:33N 47°17' W 002°01'0 0.0
2016-May-21 13:33N 47°17' W 002°01'0 0.0
2016-May-21 12:34N 47°17' W 002°01'0 0.0
2016-May-21 11:33N 47°17' W 002°01'0 0.3
2016-May-21 10:34N 47°18' W 002°01'4 4.1
2016-May-21 09:33N 47°18' W 002°07'0 0.1
2016-May-21 08:33N 47°18' W 002°08'0 0.2
2016-May-21 07:33N 47°18' W 002°07'0 0.1
2016-May-21 06:33N 47°18' W 002°07'1 0.6
2016-May-21 05:33N 47°18' W 002°06'4 3.6
2016-May-21 04:34N 47°17' W 002°01'0 0.0
2016-May-21 03:32N 47°17' W 002°01'0 0.0
2016-May-21 02:33N 47°17' W 002°01'0 0.0
2016-May-21 01:34N 47°17' W 002°01'0 0.0
2016-May-21 00:33N 47°17' W 002°01'0 0.0
2016-May-20 23:34N 47°17' W 002°01'0 0.0
2016-May-20 22:28N 47°17' W 002°01'0 0.0
2016-May-20 21:33N 47°17' W 002°01'0 0.0
2016-May-20 20:32N 47°17' W 002°01'0 0.0
2016-May-20 19:30N 47°17' W 002°01'0 0.0
2016-May-20 18:23N 47°17' W 002°01'0 0.0
2016-May-20 16:30N 47°17' W 002°01'0 0.4
2016-May-20 15:34N 47°18' W 002°01'0 0.4
2016-May-20 14:32N 47°17' W 002°01'0 0.0
2016-May-20 13:33N 47°17' W 002°01'0 0.0
2016-May-20 12:33N 47°17' W 002°01'0 0.0
2016-May-20 11:33N 47°17' W 002°01'0 0.0
2016-May-20 10:33N 47°17' W 002°01'3 3.3
2016-May-20 09:33N 47°18' W 002°06'1 0.7
2016-May-20 08:34N 47°18' W 002°07'0 0.0
2016-May-20 07:33N 47°18' W 002°07'0 0.1
2016-May-20 06:34N 47°18' W 002°07'0 0.2
2016-May-20 05:33N 47°18' W 002°06'  

Dump ship's entire track history